createdAt,value
2023-05-19T00:01:25.227Z,102928.19
2023-05-19T00:03:57.932Z,102930.41
2023-05-19T00:06:27.806Z,102923.34
2023-05-19T00:08:58.998Z,102915.38
2023-05-19T00:11:27.320Z,102917.00
2023-05-19T00:13:56.113Z,102906.63
2023-05-19T00:16:25.247Z,102914.31
2023-05-19T00:18:53.364Z,102911.34
2023-05-19T00:21:20.956Z,102911.91
2023-05-19T00:23:47.916Z,102908.03
2023-05-19T00:26:15.145Z,102901.50
2023-05-19T00:28:51.412Z,102902.09
2023-05-19T00:31:18.381Z,102900.44
2023-05-19T00:33:46.269Z,102901.25
2023-05-19T00:36:13.983Z,102899.34
2023-05-19T00:38:41.042Z,102897.19
2023-05-19T00:41:07.968Z,102897.50
2023-05-19T00:43:35.019Z,102892.00
2023-05-19T00:46:02.426Z,102899.41
2023-05-19T00:48:29.343Z,102897.75
2023-05-19T00:51:04.749Z,102894.81
2023-05-19T00:53:38.499Z,102894.56
2023-05-19T00:56:06.315Z,102900.03
2023-05-19T00:58:36.120Z,102901.44
2023-05-19T01:01:05.293Z,102899.78
2023-05-19T01:03:37.719Z,102897.31
2023-05-19T01:06:08.077Z,102896.78
2023-05-19T01:08:37.374Z,102889.66
2023-05-19T01:11:05.476Z,102890.78
2023-05-19T01:13:33.449Z,102886.69
2023-05-19T01:16:12.442Z,102896.84
2023-05-19T01:19:14.280Z,102891.09
2023-05-19T01:21:53.369Z,102880.13
2023-05-19T01:24:49.711Z,102880.69
2023-05-19T01:27:47.171Z,102883.19
2023-05-19T01:30:28.038Z,102876.09
2023-05-19T01:32:59.662Z,102874.97
2023-05-19T01:35:28.041Z,102882.09
2023-05-19T01:37:58.123Z,102878.22
2023-05-19T01:40:27.119Z,102871.66
2023-05-19T01:43:00.568Z,102870.56
2023-05-19T01:45:33.107Z,102867.25
2023-05-19T01:48:02.411Z,102862.38
2023-05-19T01:50:30.071Z,102861.00
2023-05-19T01:52:58.315Z,102862.13
2023-05-19T01:55:26.109Z,102861.28
2023-05-19T01:58:17.704Z,102865.13
2023-05-19T02:00:53.089Z,102860.47
2023-05-19T02:03:41.024Z,102856.38
2023-05-19T02:06:29.093Z,102856.66
2023-05-19T02:09:12.115Z,102858.59
2023-05-19T02:11:46.600Z,102849.00
2023-05-19T02:14:22.915Z,102857.78
2023-05-19T02:16:52.197Z,102856.38
2023-05-19T02:19:33.662Z,102850.06
2023-05-19T02:22:00.691Z,102850.38
2023-05-19T02:24:27.680Z,102846.03
2023-05-19T02:26:54.667Z,102850.38
2023-05-19T02:29:21.754Z,102844.59
2023-05-19T02:31:50.733Z,102844.34
2023-05-19T02:34:19.248Z,102842.13
2023-05-19T02:36:49.880Z,102833.91
2023-05-19T02:39:17.086Z,102834.19
2023-05-19T02:41:44.108Z,102835.00
2023-05-19T02:44:10.944Z,102828.19
2023-05-19T02:46:38.006Z,102829.78
2023-05-19T02:49:05.039Z,102831.75
2023-05-19T02:51:32.052Z,102835.56
2023-05-19T02:53:59.026Z,102830.91
2023-05-19T02:56:26.502Z,102839.41
2023-05-19T02:58:53.848Z,102837.50
2023-05-19T03:01:22.192Z,102831.19
2023-05-19T03:03:49.487Z,102836.97
2023-05-19T03:06:18.045Z,102827.94
2023-05-19T03:08:45.208Z,102829.84
2023-05-19T03:11:12.127Z,102838.38
2023-05-19T03:13:42.583Z,102824.94
2023-05-19T03:16:11.960Z,102829.00
2023-05-19T03:18:38.894Z,102824.09
2023-05-19T03:21:06.327Z,102822.50
2023-05-19T03:23:33.357Z,102827.41
2023-05-19T03:26:01.309Z,102815.88
2023-05-19T03:28:28.537Z,102827.94
2023-05-19T03:30:55.477Z,102825.19
2023-05-19T03:33:29.913Z,102832.06
2023-05-19T03:35:57.675Z,102829.34
2023-05-19T03:38:25.106Z,102826.63
2023-05-19T03:40:57.291Z,102835.38
2023-05-19T03:43:24.260Z,102821.97
2023-05-19T03:46:03.319Z,102829.13
2023-05-19T03:48:50.170Z,102823.06
2023-05-19T03:51:41.372Z,102816.69
2023-05-19T03:54:28.194Z,102824.94
2023-05-19T03:56:55.230Z,102819.75
2023-05-19T03:59:23.641Z,102812.88
2023-05-19T04:01:51.652Z,102814.72
2023-05-19T04:04:19.013Z,102814.38
2023-05-19T04:06:46.151Z,102821.75
2023-05-19T04:09:14.818Z,102821.41
2023-05-19T04:11:42.545Z,102821.94
2023-05-19T04:14:10.011Z,102820.78
2023-05-19T04:16:37.252Z,102825.41
2023-05-19T04:19:04.254Z,102825.94
2023-05-19T04:21:31.541Z,102827.03
2023-05-19T04:24:01.146Z,102822.63
2023-05-19T04:26:31.249Z,102824.72
2023-05-19T04:28:58.429Z,102818.59
2023-05-19T04:31:26.136Z,102825.97
2023-05-19T04:33:53.689Z,102824.88
2023-05-19T04:36:22.554Z,102826.22
2023-05-19T04:38:54.991Z,102812.97
2023-05-19T04:41:25.493Z,102820.56
2023-05-19T04:43:52.470Z,102826.59
2023-05-19T04:46:24.376Z,102820.19
2023-05-19T04:48:57.140Z,102827.00
2023-05-19T04:51:31.561Z,102834.75
2023-05-19T04:54:01.570Z,102838.69
2023-05-19T04:56:29.023Z,102838.78
2023-05-19T04:58:56.812Z,102846.44
2023-05-19T05:01:26.380Z,102848.97
2023-05-19T05:03:59.047Z,102846.00
2023-05-19T05:06:26.654Z,102861.78
2023-05-19T05:08:53.860Z,102848.69
2023-05-19T05:11:21.457Z,102850.56
2023-05-19T05:13:48.831Z,102843.31
2023-05-19T05:16:16.807Z,102848.69
2023-05-19T05:18:45.029Z,102848.94
2023-05-19T05:21:12.721Z,102859.06
2023-05-19T05:23:41.334Z,102856.13
2023-05-19T05:26:13.750Z,102854.94
2023-05-19T05:28:41.521Z,102849.38
2023-05-19T05:31:08.578Z,102852.00
2023-05-19T05:33:36.368Z,102849.38
2023-05-19T05:36:03.911Z,102850.25
2023-05-19T05:38:31.417Z,102851.16
2023-05-19T05:40:59.027Z,102856.25
2023-05-19T05:43:26.099Z,102857.72
2023-05-19T05:45:58.223Z,102858.13
2023-05-19T05:48:25.956Z,102850.16
2023-05-19T05:50:53.418Z,102857.44
2023-05-19T05:53:26.952Z,102857.53
2023-05-19T05:55:55.325Z,102857.63
2023-05-19T05:58:27.556Z,102853.53
2023-05-19T06:00:57.599Z,102850.84
2023-05-19T06:03:26.140Z,102860.31
2023-05-19T06:05:54.672Z,102860.94
2023-05-19T06:08:22.004Z,102868.25
2023-05-19T06:10:49.215Z,102860.38
2023-05-19T06:13:22.269Z,102855.75
2023-05-19T06:15:49.893Z,102861.34
2023-05-19T06:18:21.783Z,102861.88
2023-05-19T06:20:48.903Z,102862.34
2023-05-19T06:23:15.928Z,102865.00
2023-05-19T06:25:42.969Z,102866.97
2023-05-19T06:28:11.021Z,102867.84
2023-05-19T06:30:38.190Z,102865.47
2023-05-19T06:33:20.078Z,102868.63
2023-05-19T06:35:46.995Z,102875.19
2023-05-19T06:38:15.305Z,102878.81
2023-05-19T06:40:42.708Z,102882.59
2023-05-19T06:43:10.071Z,102879.19
2023-05-19T06:45:53.363Z,102880.88
2023-05-19T06:48:20.653Z,102883.84
2023-05-19T06:50:48.577Z,102885.94
2023-05-19T06:53:17.649Z,102888.06
2023-05-19T06:55:58.125Z,102895.91
2023-05-19T06:58:28.474Z,102886.78
2023-05-19T07:00:56.535Z,102897.19
2023-05-19T07:03:27.288Z,102894.94
2023-05-19T07:05:55.416Z,102889.75
2023-05-19T07:08:22.831Z,102902.16
2023-05-19T07:10:49.968Z,102891.91
2023-05-19T07:13:17.554Z,102899.88
2023-05-19T07:15:45.142Z,102895.81
2023-05-19T07:18:12.505Z,102893.06
2023-05-19T07:20:39.506Z,102904.16
2023-05-19T07:23:06.869Z,102900.78
2023-05-19T07:25:34.009Z,102902.88
2023-05-19T07:28:01.369Z,102901.25
2023-05-19T07:30:28.996Z,102896.66
2023-05-19T07:32:56.312Z,102902.69
2023-05-19T07:35:23.580Z,102900.88
2023-05-19T07:37:52.572Z,102888.97
2023-05-19T07:40:19.654Z,102899.09
2023-05-19T07:42:46.642Z,102898.72
2023-05-19T07:45:13.537Z,102889.41
2023-05-19T07:47:41.348Z,102896.75
2023-05-19T07:50:08.606Z,102892.81
2023-05-19T07:52:35.998Z,102892.66
2023-05-19T07:55:02.944Z,102887.03
2023-05-19T07:57:29.906Z,102882.03
2023-05-19T07:59:56.866Z,102892.59
2023-05-19T08:02:23.832Z,102893.59
2023-05-19T08:04:50.992Z,102890.28
2023-05-19T08:07:18.075Z,102892.50
2023-05-19T08:09:44.965Z,102897.69
2023-05-19T08:12:11.937Z,102894.50
2023-05-19T08:14:39.089Z,102891.88
2023-05-19T08:17:06.349Z,102890.91
2023-05-19T08:19:33.347Z,102882.66
2023-05-19T08:22:01.754Z,102887.25
2023-05-19T08:24:32.955Z,102885.50
2023-05-19T08:27:00.060Z,102891.13
2023-05-19T08:29:27.005Z,102880.25
2023-05-19T08:31:54.035Z,102880.53
2023-05-19T08:34:21.277Z,102877.47
2023-05-19T08:36:48.318Z,102877.09
2023-05-19T08:39:18.665Z,102881.19
2023-05-19T08:41:45.969Z,102884.50
2023-05-19T08:44:13.019Z,102872.06
2023-05-19T08:46:40.302Z,102873.34
2023-05-19T08:49:13.285Z,102877.50
2023-05-19T08:52:01.599Z,102871.47
2023-05-19T08:54:44.823Z,102860.03
2023-05-19T08:57:13.158Z,102856.56
2023-05-19T08:59:41.097Z,102861.00
2023-05-19T09:02:11.635Z,102857.25
2023-05-19T09:04:40.351Z,102858.09
2023-05-19T09:07:09.426Z,102847.50
2023-05-19T09:09:36.462Z,102851.09
2023-05-19T09:12:04.632Z,102849.44
2023-05-19T09:14:33.172Z,102852.16
2023-05-19T09:17:01.232Z,102844.19
2023-05-19T09:19:31.873Z,102846.78
2023-05-19T09:22:06.522Z,102835.41
2023-05-19T09:24:34.902Z,102836.03
2023-05-19T09:27:02.302Z,102836.03
2023-05-19T09:29:29.182Z,102845.69
2023-05-19T09:32:01.020Z,102840.91
2023-05-19T09:34:28.264Z,102830.06
2023-05-19T09:36:55.743Z,102834.13
2023-05-19T09:39:23.693Z,102836.13
2023-05-19T09:41:55.268Z,102833.31
2023-05-19T09:44:29.739Z,102832.97
2023-05-19T09:46:58.396Z,102828.97
2023-05-19T09:49:29.676Z,102835.38
2023-05-19T09:51:58.699Z,102826.06
2023-05-19T09:54:28.473Z,102820.81
2023-05-19T09:57:03.793Z,102817.03
2023-05-19T09:59:32.946Z,102825.13
2023-05-19T10:02:02.535Z,102827.59
2023-05-19T10:04:31.134Z,102838.44
2023-05-19T10:07:05.824Z,102833.25
2023-05-19T10:09:36.416Z,102826.13
2023-05-19T10:12:04.633Z,102824.75
2023-05-19T10:14:31.587Z,102831.91
2023-05-19T10:16:59.613Z,102819.56
2023-05-19T10:19:29.188Z,102818.91
2023-05-19T10:21:56.963Z,102802.34
2023-05-19T10:24:24.077Z,102806.19
2023-05-19T10:26:57.868Z,102819.78
2023-05-19T10:29:30.850Z,102806.00
2023-05-19T10:32:06.763Z,102803.75
2023-05-19T10:34:57.590Z,102809.16
2023-05-19T10:37:41.819Z,102799.78
2023-05-19T10:40:20.250Z,102798.19
2023-05-19T10:43:07.524Z,102804.22
2023-05-19T10:45:46.354Z,102801.56
2023-05-19T10:48:17.285Z,102800.91
2023-05-19T10:50:46.776Z,102796.97
2023-05-19T10:53:18.577Z,102804.53
2023-05-19T10:55:56.022Z,102796.34
2023-05-19T10:58:39.879Z,102804.44
2023-05-19T11:01:17.493Z,102802.97
2023-05-19T11:03:55.108Z,102802.09
2023-05-19T11:06:26.533Z,102802.53
2023-05-19T11:08:58.304Z,102803.31
2023-05-19T11:11:25.256Z,102804.41
2023-05-19T11:13:56.643Z,102797.53
2023-05-19T11:16:31.965Z,102796.94
2023-05-19T11:18:59.941Z,102804.09
2023-05-19T11:21:49.176Z,102803.44
2023-05-19T11:24:36.337Z,102804.63
2023-05-19T11:27:22.297Z,102800.38
2023-05-19T11:29:49.687Z,102792.81
2023-05-19T11:32:17.475Z,102793.63
2023-05-19T11:34:45.910Z,102785.59
2023-05-19T11:37:13.113Z,102788.47
2023-05-19T11:39:40.831Z,102796.16
2023-05-19T11:42:11.569Z,102789.66
2023-05-19T11:44:39.054Z,102787.25
2023-05-19T11:47:06.930Z,102786.53
2023-05-19T11:49:34.627Z,102783.16
2023-05-19T11:52:04.700Z,102778.13
2023-05-19T11:54:33.463Z,102782.25
2023-05-19T11:57:02.883Z,102778.66
2023-05-19T11:59:34.839Z,102775.34
2023-05-19T12:02:28.088Z,102781.75
2023-05-19T12:04:55.292Z,102781.34
2023-05-19T12:07:23.778Z,102785.81
2023-05-19T12:09:52.337Z,102785.53
2023-05-19T12:12:21.059Z,102775.78
2023-05-19T12:14:50.927Z,102774.81
2023-05-19T12:17:20.051Z,102774.53
2023-05-19T12:19:48.695Z,102781.66
2023-05-19T12:22:17.503Z,102777.44
2023-05-19T12:24:45.558Z,102783.91
2023-05-19T12:27:20.056Z,102763.38
2023-05-19T12:29:52.362Z,102778.88
2023-05-19T12:32:23.050Z,102770.59
2023-05-19T12:34:50.283Z,102772.91
2023-05-19T12:37:17.646Z,102784.59
2023-05-19T12:39:45.292Z,102772.06
2023-05-19T12:42:13.068Z,102766.94
2023-05-19T12:44:44.286Z,102773.28
2023-05-19T12:47:11.285Z,102764.25
2023-05-19T12:50:04.044Z,102776.06
2023-05-19T12:52:35.709Z,102769.69
2023-05-19T12:55:07.653Z,102760.31
2023-05-19T12:57:36.122Z,102760.97
2023-05-19T13:00:14.112Z,102748.59
2023-05-19T13:03:05.417Z,102754.81
2023-05-19T13:05:35.779Z,102752.22
2023-05-19T13:08:10.098Z,102755.34
2023-05-19T13:10:39.132Z,102740.53
2023-05-19T13:13:08.915Z,102753.41
2023-05-19T13:15:39.265Z,102744.47
2023-05-19T13:18:11.359Z,102734.34
2023-05-19T13:20:40.525Z,102733.25
2023-05-19T13:23:07.616Z,102730.97
2023-05-19T13:25:34.964Z,102739.34
2023-05-19T13:28:06.037Z,102736.78
2023-05-19T13:30:34.759Z,102731.31
2023-05-19T13:33:02.810Z,102727.56
2023-05-19T13:35:30.823Z,102729.06
2023-05-19T13:37:57.935Z,102736.03
2023-05-19T13:40:26.160Z,102733.63
2023-05-19T13:42:53.282Z,102726.38
2023-05-19T13:45:20.226Z,102723.66
2023-05-19T13:47:47.175Z,102721.63
2023-05-19T13:50:14.121Z,102716.38
2023-05-19T13:52:41.298Z,102723.66
2023-05-19T13:55:08.861Z,102723.13
2023-05-19T13:57:36.010Z,102717.47
2023-05-19T14:00:04.959Z,102712.09
2023-05-19T14:02:41.163Z,102709.34
2023-05-19T14:05:08.769Z,102711.22
2023-05-19T14:07:36.314Z,102708.31
2023-05-19T14:10:05.760Z,102713.03
2023-05-19T14:12:43.584Z,102715.41
2023-05-19T14:15:20.212Z,102718.13
2023-05-19T14:17:49.068Z,102717.97
2023-05-19T14:20:16.264Z,102716.19
2023-05-19T14:22:43.437Z,102717.06
2023-05-19T14:25:10.687Z,102713.50
2023-05-19T14:27:39.909Z,102718.25
2023-05-19T14:30:08.074Z,102712.28
2023-05-19T14:35:02.491Z,102698.78
2023-05-19T14:37:31.756Z,102692.84
2023-05-19T14:39:59.155Z,102691.94
2023-05-19T14:42:26.216Z,102695.03
2023-05-19T14:44:53.154Z,102693.56
2023-05-19T14:47:20.132Z,102690.84
2023-05-19T14:49:47.169Z,102694.91
2023-05-19T14:52:14.381Z,102690.34
2023-05-19T14:54:41.251Z,102698.22
2023-05-19T14:57:08.388Z,102689.75
2023-05-19T14:59:38.810Z,102677.03
2023-05-19T15:02:06.447Z,102675.41
2023-05-19T15:04:33.400Z,102682.84
2023-05-19T15:09:30.488Z,102677.25
2023-05-19T15:11:57.388Z,102672.75
2023-05-19T15:14:24.355Z,102683.88
2023-05-19T15:16:51.492Z,102683.34
2023-05-19T15:19:18.693Z,102684.44
2023-05-19T15:21:46.090Z,102684.34
2023-05-19T15:24:13.192Z,102689.50
2023-05-19T15:26:40.139Z,102685.03
2023-05-19T15:29:07.054Z,102689.34
2023-05-19T15:31:35.941Z,102693.50
2023-05-19T15:34:05.774Z,102689.69
2023-05-19T15:36:33.442Z,102679.81
2023-05-19T15:39:00.789Z,102691.41
2023-05-19T15:41:27.743Z,102693.00
2023-05-19T15:43:54.900Z,102703.31
2023-05-19T15:46:21.873Z,102695.56
2023-05-19T15:48:48.844Z,102700.63
2023-05-19T15:51:16.152Z,102696.97
2023-05-19T15:53:43.160Z,102701.81
2023-05-19T15:56:11.405Z,102686.00
2023-05-19T15:58:38.626Z,102683.66
2023-05-19T16:01:06.740Z,102677.41
2023-05-19T16:03:33.968Z,102687.44
2023-05-19T16:06:01.248Z,102682.53
2023-05-19T16:08:28.695Z,102671.16
2023-05-19T16:10:56.119Z,102682.03
2023-05-19T16:13:23.294Z,102675.63
2023-05-19T16:15:50.266Z,102671.75
2023-05-19T16:18:17.271Z,102673.75
2023-05-19T16:20:44.488Z,102672.25
2023-05-19T16:23:11.414Z,102668.34
2023-05-19T16:25:38.370Z,102666.38
2023-05-19T16:28:05.920Z,102669.53
2023-05-19T16:30:33.096Z,102677.56
2023-05-19T16:33:00.233Z,102681.22
2023-05-19T16:35:29.979Z,102693.19
2023-05-19T16:37:56.933Z,102689.28
2023-05-19T16:40:24.163Z,102697.53
2023-05-19T16:42:52.934Z,102711.16
2023-05-19T16:45:20.005Z,102701.28
2023-05-19T16:47:47.139Z,102697.72
2023-05-19T16:50:14.093Z,102691.19
2023-05-19T16:52:41.056Z,102684.75
2023-05-19T16:55:08.464Z,102673.69
2023-05-19T16:57:35.960Z,102672.38
2023-05-19T17:00:03.714Z,102680.47
2023-05-19T17:02:31.022Z,102670.75
2023-05-19T17:04:58.044Z,102678.84
2023-05-19T17:07:25.038Z,102674.69
2023-05-19T17:09:53.946Z,102675.09
2023-05-19T17:12:22.240Z,102679.31
2023-05-19T17:14:50.634Z,102679.56
2023-05-19T17:17:18.772Z,102678.00
2023-05-19T17:19:46.064Z,102671.59
2023-05-19T17:22:13.024Z,102677.06
2023-05-19T17:24:40.031Z,102679.22
2023-05-19T17:27:07.181Z,102676.09
2023-05-19T17:29:34.845Z,102681.22
2023-05-19T17:32:04.442Z,102687.44
2023-05-19T17:34:31.674Z,102681.63
2023-05-19T17:36:58.655Z,102680.34
2023-05-19T17:39:25.776Z,102693.16
2023-05-19T17:41:52.976Z,102685.41
2023-05-19T17:44:20.040Z,102690.91
2023-05-19T17:46:47.134Z,102690.16
2023-05-19T17:49:15.587Z,102688.66
2023-05-19T17:51:42.939Z,102691.50
2023-05-19T17:54:10.025Z,102688.28
2023-05-19T17:56:42.372Z,102696.78
2023-05-19T17:59:09.826Z,102694.88
2023-05-19T18:01:37.389Z,102699.31
2023-05-19T18:04:04.991Z,102699.44
2023-05-19T18:06:32.458Z,102697.81
2023-05-19T18:09:01.289Z,102707.34
2023-05-19T18:11:28.514Z,102714.78
2023-05-19T18:13:55.421Z,102718.06
2023-05-19T18:16:22.492Z,102724.47
2023-05-19T18:18:50.636Z,102724.81
2023-05-19T18:21:18.240Z,102730.38
2023-05-19T18:23:46.026Z,102725.97
2023-05-19T18:26:13.444Z,102722.50
2023-05-19T18:28:41.396Z,102724.31
2023-05-19T18:31:17.410Z,102722.47
2023-05-19T18:33:45.684Z,102721.97
2023-05-19T18:36:13.701Z,102725.56
2023-05-19T18:38:41.021Z,102727.03
2023-05-19T18:41:08.381Z,102722.47
2023-05-19T18:43:35.850Z,102730.09
2023-05-19T18:46:03.118Z,102725.66
2023-05-19T18:48:30.488Z,102727.84
2023-05-19T18:50:57.618Z,102729.31
2023-05-19T18:53:24.592Z,102731.00
2023-05-19T18:55:51.660Z,102744.56
2023-05-19T18:58:19.112Z,102732.78
2023-05-19T19:00:46.268Z,102735.59
2023-05-19T19:03:13.411Z,102743.66
2023-05-19T19:05:40.576Z,102739.47
2023-05-19T19:08:07.556Z,102731.97
2023-05-19T19:10:39.209Z,102733.88
2023-05-19T19:13:06.941Z,102738.00
2023-05-19T19:15:34.027Z,102742.13
2023-05-19T19:18:01.380Z,102744.44
2023-05-19T19:20:28.528Z,102746.13
2023-05-19T19:22:56.119Z,102742.56
2023-05-19T19:25:23.773Z,102748.44
2023-05-19T19:27:51.379Z,102744.88
2023-05-19T19:30:18.531Z,102746.56
2023-05-19T19:32:45.505Z,102750.97
2023-05-19T19:35:12.601Z,102750.19
2023-05-19T19:37:39.559Z,102748.41
2023-05-19T19:40:06.965Z,102759.34
2023-05-19T19:42:34.672Z,102768.94
2023-05-19T19:45:01.924Z,102764.03
2023-05-19T19:47:29.251Z,102765.00
2023-05-19T19:49:56.580Z,102763.25
2023-05-19T19:52:23.722Z,102763.44
2023-05-19T19:54:50.648Z,102760.03
2023-05-19T19:57:18.765Z,102767.34
2023-05-19T19:59:46.058Z,102758.72
2023-05-19T20:02:14.357Z,102762.47
2023-05-19T20:04:41.449Z,102763.59
2023-05-19T20:07:08.521Z,102770.91
2023-05-19T20:09:36.000Z,102770.78
2023-05-19T20:12:03.053Z,102761.97
2023-05-19T20:14:30.030Z,102762.63
2023-05-19T20:16:56.903Z,102769.44
2023-05-19T20:19:28.366Z,102774.34
2023-05-19T20:21:56.085Z,102774.50
2023-05-19T20:24:23.218Z,102770.75
2023-05-19T20:26:50.572Z,102769.28
2023-05-19T20:29:17.566Z,102768.31
2023-05-19T20:31:46.890Z,102768.13
2023-05-19T20:34:14.910Z,102764.84
2023-05-19T20:36:42.239Z,102775.13
2023-05-19T20:39:10.279Z,102780.66
2023-05-19T20:41:37.317Z,102774.31
2023-05-19T20:44:04.833Z,102786.84
2023-05-19T20:46:32.517Z,102781.31
2023-05-19T20:49:00.127Z,102791.03
2023-05-19T20:51:27.391Z,102791.84
2023-05-19T20:53:54.370Z,102783.06
2023-05-19T20:56:22.712Z,102796.09
2023-05-19T20:58:49.696Z,102787.13
2023-05-19T21:01:17.021Z,102795.09
2023-05-19T21:03:44.147Z,102795.25
2023-05-19T21:06:11.573Z,102790.06
2023-05-19T21:08:38.515Z,102791.47
2023-05-19T21:11:05.493Z,102792.13
2023-05-19T21:13:32.537Z,102786.78
2023-05-19T21:15:59.620Z,102779.13
2023-05-19T21:18:26.731Z,102786.44
2023-05-19T21:20:53.814Z,102787.09
2023-05-19T21:23:20.755Z,102780.56
2023-05-19T21:25:47.702Z,102778.09
2023-05-19T21:28:14.764Z,102781.03
2023-05-19T21:30:41.708Z,102781.19
2023-05-19T21:33:08.731Z,102783.47
2023-05-19T21:35:37.029Z,102778.09
2023-05-19T21:38:11.984Z,102789.50
2023-05-19T21:40:49.344Z,102778.44
2023-05-19T21:43:16.403Z,102783.59
2023-05-19T21:45:43.462Z,102792.72
2023-05-19T21:48:11.599Z,102783.13
2023-05-19T21:50:38.950Z,102780.63
2023-05-19T21:53:06.133Z,102790.94
2023-05-19T21:55:33.281Z,102791.59
2023-05-19T21:58:01.691Z,102785.38
2023-05-19T22:00:29.617Z,102793.78
2023-05-19T22:02:56.933Z,102787.56
2023-05-19T22:05:24.004Z,102785.78
2023-05-19T22:07:50.838Z,102790.16
2023-05-19T22:10:17.769Z,102788.84
2023-05-19T22:12:44.635Z,102788.03
2023-05-19T22:15:13.423Z,102785.91
2023-05-19T22:17:40.537Z,102786.53
2023-05-19T22:20:08.215Z,102786.38
2023-05-19T22:22:35.148Z,102774.50
2023-05-19T22:25:03.957Z,102781.97
2023-05-19T22:27:31.606Z,102780.53
2023-05-19T22:29:59.870Z,102789.94
2023-05-19T22:32:26.931Z,102778.59
2023-05-19T22:34:53.963Z,102780.53
2023-05-19T22:37:23.809Z,102781.16
2023-05-19T22:39:51.704Z,102781.00
2023-05-19T22:42:18.757Z,102774.00
2023-05-19T22:44:45.951Z,102767.16
2023-05-19T22:47:13.647Z,102771.56
2023-05-19T22:49:42.446Z,102771.22
2023-05-19T22:52:11.185Z,102771.56
2023-05-19T22:54:38.761Z,102765.56
2023-05-19T22:57:06.567Z,102767.78
2023-05-19T22:59:33.740Z,102761.59
2023-05-19T23:02:00.812Z,102762.41
2023-05-19T23:04:28.039Z,102762.59
2023-05-19T23:06:55.123Z,102753.81
2023-05-19T23:09:22.148Z,102756.75
2023-05-19T23:11:49.512Z,102758.06
2023-05-19T23:14:18.574Z,102755.94
2023-05-19T23:16:45.645Z,102764.22
2023-05-19T23:19:12.606Z,102761.78
2023-05-19T23:21:39.553Z,102764.84
2023-05-19T23:24:06.727Z,102758.53
2023-05-19T23:26:33.700Z,102765.19
2023-05-19T23:29:01.009Z,102764.22
2023-05-19T23:31:28.129Z,102763.72
2023-05-19T23:33:55.305Z,102764.53
2023-05-19T23:36:23.186Z,102760.78
2023-05-19T23:38:50.356Z,102756.06
2023-05-19T23:41:17.316Z,102762.22
2023-05-19T23:43:44.287Z,102756.41
2023-05-19T23:46:11.322Z,102753.47
2023-05-19T23:48:38.288Z,102756.03
2023-05-19T23:51:05.863Z,102747.56
2023-05-19T23:53:32.930Z,102755.16
2023-05-19T23:55:59.951Z,102748.53
2023-05-19T23:58:26.856Z,102754.84
